sensor_id;sensor_type;location;lat;lon;timestamp;P1;P2;P0
69123;PMS5003;56232;53.384;-2.732;2023-04-07T00:02:14;2;1;
69123;PMS5003;56232;53.384;-2.732;2023-04-07T00:04:39;3;3;
69123;PMS5003;56232;53.384;-2.732;2023-04-07T00:07:05;4;4;
69123;PMS5003;56232;53.384;-2.732;2023-04-07T00:09:36;6;3;
69123;PMS5003;56232;53.384;-2.732;2023-04-07T00:11:57;4;3;
69123;PMS5003;56232;53.384;-2.732;2023-04-07T00:14:22;3;2;
69123;PMS5003;56232;53.384;-2.732;2023-04-07T00:16:48;7;3;
69123;PMS5003;56232;53.384;-2.732;2023-04-07T00:19:14;4;2;
69123;PMS5003;56232;53.384;-2.732;2023-04-07T00:21:40;5;3;
69123;PMS5003;56232;53.384;-2.732;2023-04-07T00:24:06;3;3;
69123;PMS5003;56232;53.384;-2.732;2023-04-07T00:26:31;4;4;
69123;PMS5003;56232;53.384;-2.732;2023-04-07T00:28:57;4;4;
69123;PMS5003;56232;53.384;-2.732;2023-04-07T00:31:23;3;2;
69123;PMS5003;56232;53.384;-2.732;2023-04-07T00:33:48;3;2;
69123;PMS5003;56232;53.384;-2.732;2023-04-07T00:36:14;3;2;
69123;PMS5003;56232;53.384;-2.732;2023-04-07T00:38:39;3;2;
69123;PMS5003;56232;53.384;-2.732;2023-04-07T00:41:04;7;3;
69123;PMS5003;56232;53.384;-2.732;2023-04-07T00:43:30;2;2;
69123;PMS5003;56232;53.384;-2.732;2023-04-07T00:45:56;2;2;
69123;PMS5003;56232;53.384;-2.732;2023-04-07T00:48:22;3;2;
69123;PMS5003;56232;53.384;-2.732;2023-04-07T00:50:47;3;2;
69123;PMS5003;56232;53.384;-2.732;2023-04-07T00:53:13;4;3;
69123;PMS5003;56232;53.384;-2.732;2023-04-07T00:55:39;3;3;
69123;PMS5003;56232;53.384;-2.732;2023-04-07T00:58:05;6;2;
69123;PMS5003;56232;53.384;-2.732;2023-04-07T01:00:31;2;2;
69123;PMS5003;56232;53.384;-2.732;2023-04-07T01:02:57;5;5;
69123;PMS5003;56232;53.384;-2.732;2023-04-07T01:05:22;4;3;
69123;PMS5003;56232;53.384;-2.732;2023-04-07T01:07:51;2;2;
69123;PMS5003;56232;53.384;-2.732;2023-04-07T01:10:15;5;3;
69123;PMS5003;56232;53.384;-2.732;2023-04-07T01:12:41;5;4;
69123;PMS5003;56232;53.384;-2.732;2023-04-07T01:15:06;3;2;
69123;PMS5003;56232;53.384;-2.732;2023-04-07T01:17:31;3;3;
69123;PMS5003;56232;53.384;-2.732;2023-04-07T01:19:57;5;5;
69123;PMS5003;56232;53.384;-2.732;2023-04-07T01:22:23;6;4;
69123;PMS5003;56232;53.384;-2.732;2023-04-07T01:24:54;2;2;
69123;PMS5003;56232;53.384;-2.732;2023-04-07T01:27:18;1;1;
69123;PMS5003;56232;53.384;-2.732;2023-04-07T01:29:40;1;1;
69123;PMS5003;56232;53.384;-2.732;2023-04-07T01:32:05;3;2;
69123;PMS5003;56232;53.384;-2.732;2023-04-07T01:34:31;2;2;
69123;PMS5003;56232;53.384;-2.732;2023-04-07T01:36:57;3;2;
69123;PMS5003;56232;53.384;-2.732;2023-04-07T01:39:22;4;3;
69123;PMS5003;56232;53.384;-2.732;2023-04-07T01:41:48;1;1;
69123;PMS5003;56232;53.384;-2.732;2023-04-07T01:44:13;2;2;
69123;PMS5003;56232;53.384;-2.732;2023-04-07T01:46:39;6;5;
69123;PMS5003;56232;53.384;-2.732;2023-04-07T01:49:05;2;1;
69123;PMS5003;56232;53.384;-2.732;2023-04-07T01:51:31;1;1;
69123;PMS5003;56232;53.384;-2.732;2023-04-07T01:54:02;3;2;
69123;PMS5003;56232;53.384;-2.732;2023-04-07T01:56:22;1;1;
69123;PMS5003;56232;53.384;-2.732;2023-04-07T01:58:48;2;2;
69123;PMS5003;56232;53.384;-2.732;2023-04-07T02:01:14;1;1;
69123;PMS5003;56232;53.384;-2.732;2023-04-07T02:03:42;1;1;
69123;PMS5003;56232;53.384;-2.732;2023-04-07T02:06:06;1;0;
69123;PMS5003;56232;53.384;-2.732;2023-04-07T02:08:31;1;1;
69123;PMS5003;56232;53.384;-2.732;2023-04-07T02:10:57;1;1;
69123;PMS5003;56232;53.384;-2.732;2023-04-07T02:13:23;1;1;
69123;PMS5003;56232;53.384;-2.732;2023-04-07T02:15:49;2;1;
69123;PMS5003;56232;53.384;-2.732;2023-04-07T02:18:14;1;1;
69123;PMS5003;56232;53.384;-2.732;2023-04-07T02:20:41;1;1;
69123;PMS5003;56232;53.384;-2.732;2023-04-07T02:23:06;2;1;
69123;PMS5003;56232;53.384;-2.732;2023-04-07T02:25:32;2;2;
69123;PMS5003;56232;53.384;-2.732;2023-04-07T02:27:58;1;1;
69123;PMS5003;56232;53.384;-2.732;2023-04-07T02:30:23;3;2;
69123;PMS5003;56232;53.384;-2.732;2023-04-07T02:32:49;2;2;
69123;PMS5003;56232;53.384;-2.732;2023-04-07T02:35:15;3;3;
69123;PMS5003;56232;53.384;-2.732;2023-04-07T02:37:41;3;2;
69123;PMS5003;56232;53.384;-2.732;2023-04-07T02:40:07;2;2;
69123;PMS5003;56232;53.384;-2.732;2023-04-07T02:42:32;4;2;
69123;PMS5003;56232;53.384;-2.732;2023-04-07T02:44:58;3;2;
69123;PMS5003;56232;53.384;-2.732;2023-04-07T02:47:24;3;2;
69123;PMS5003;56232;53.384;-2.732;2023-04-07T02:49:50;2;1;
69123;PMS5003;56232;53.384;-2.732;2023-04-07T02:52:15;1;1;
69123;PMS5003;56232;53.384;-2.732;2023-04-07T02:54:41;3;2;
69123;PMS5003;56232;53.384;-2.732;2023-04-07T02:57:07;0;0;
69123;PMS5003;56232;53.384;-2.732;2023-04-07T02:59:32;2;1;
69123;PMS5003;56232;53.384;-2.732;2023-04-07T03:01:58;1;0;
69123;PMS5003;56232;53.384;-2.732;2023-04-07T03:04:24;2;2;
69123;PMS5003;56232;53.384;-2.732;2023-04-07T03:06:50;3;2;
69123;PMS5003;56232;53.384;-2.732;2023-04-07T03:09:15;3;2;
69123;PMS5003;56232;53.384;-2.732;2023-04-07T03:11:41;2;2;
69123;PMS5003;56232;53.384;-2.732;2023-04-07T03:14:07;2;1;
69123;PMS5003;56232;53.384;-2.732;2023-04-07T03:16:32;1;1;
69123;PMS5003;56232;53.384;-2.732;2023-04-07T03:18:58;2;1;
69123;PMS5003;56232;53.384;-2.732;2023-04-07T03:21:24;1;1;
69123;PMS5003;56232;53.384;-2.732;2023-04-07T03:23:49;5;1;
69123;PMS5003;56232;53.384;-2.732;2023-04-07T03:26:15;3;3;
69123;PMS5003;56232;53.384;-2.732;2023-04-07T03:28:41;2;2;
69123;PMS5003;56232;53.384;-2.732;2023-04-07T03:31:07;3;2;
69123;PMS5003;56232;53.384;-2.732;2023-04-07T03:33:32;1;1;
69123;PMS5003;56232;53.384;-2.732;2023-04-07T03:35:58;2;2;
69123;PMS5003;56232;53.384;-2.732;2023-04-07T03:38:24;1;0;
69123;PMS5003;56232;53.384;-2.732;2023-04-07T03:40:50;2;2;
69123;PMS5003;56232;53.384;-2.732;2023-04-07T03:43:15;2;1;
69123;PMS5003;56232;53.384;-2.732;2023-04-07T03:45:41;4;3;
69123;PMS5003;56232;53.384;-2.732;2023-04-07T03:48:07;2;2;
69123;PMS5003;56232;53.384;-2.732;2023-04-07T03:50:33;2;2;
69123;PMS5003;56232;53.384;-2.732;2023-04-07T03:52:58;1;1;
69123;PMS5003;56232;53.384;-2.732;2023-04-07T03:55:24;3;1;
69123;PMS5003;56232;53.384;-2.732;2023-04-07T03:57:50;1;1;
69123;PMS5003;56232;53.384;-2.732;2023-04-07T04:00:16;1;1;
69123;PMS5003;56232;53.384;-2.732;2023-04-07T04:02:42;1;1;
69123;PMS5003;56232;53.384;-2.732;2023-04-07T04:05:08;4;2;
69123;PMS5003;56232;53.384;-2.732;2023-04-07T04:07:33;2;1;
69123;PMS5003;56232;53.384;-2.732;2023-04-07T04:09:59;2;1;
69123;PMS5003;56232;53.384;-2.732;2023-04-07T04:12:25;1;1;
69123;PMS5003;56232;53.384;-2.732;2023-04-07T04:14:51;2;2;
69123;PMS5003;56232;53.384;-2.732;2023-04-07T04:17:17;1;1;
69123;PMS5003;56232;53.384;-2.732;2023-04-07T04:19:42;1;1;
69123;PMS5003;56232;53.384;-2.732;2023-04-07T04:22:08;1;1;
69123;PMS5003;56232;53.384;-2.732;2023-04-07T04:24:34;1;1;
69123;PMS5003;56232;53.384;-2.732;2023-04-07T04:27:00;2;1;
69123;PMS5003;56232;53.384;-2.732;2023-04-07T04:29:26;1;1;
69123;PMS5003;56232;53.384;-2.732;2023-04-07T04:31:52;3;1;
69123;PMS5003;56232;53.384;-2.732;2023-04-07T04:34:17;1;1;
69123;PMS5003;56232;53.384;-2.732;2023-04-07T04:36:43;1;1;
69123;PMS5003;56232;53.384;-2.732;2023-04-07T04:39:09;2;1;
69123;PMS5003;56232;53.384;-2.732;2023-04-07T04:41:35;2;2;
69123;PMS5003;56232;53.384;-2.732;2023-04-07T04:44:01;2;1;
69123;PMS5003;56232;53.384;-2.732;2023-04-07T04:46:26;2;2;
69123;PMS5003;56232;53.384;-2.732;2023-04-07T04:48:53;2;1;
69123;PMS5003;56232;53.384;-2.732;2023-04-07T04:51:18;2;2;
69123;PMS5003;56232;53.384;-2.732;2023-04-07T04:53:44;2;1;
69123;PMS5003;56232;53.384;-2.732;2023-04-07T04:56:09;1;1;
69123;PMS5003;56232;53.384;-2.732;2023-04-07T04:58:35;2;2;
69123;PMS5003;56232;53.384;-2.732;2023-04-07T05:01:00;3;3;
69123;PMS5003;56232;53.384;-2.732;2023-04-07T05:03:26;3;2;
69123;PMS5003;56232;53.384;-2.732;2023-04-07T05:05:51;3;2;
69123;PMS5003;56232;53.384;-2.732;2023-04-07T05:08:16;2;2;
69123;PMS5003;56232;53.384;-2.732;2023-04-07T05:10:41;3;2;
69123;PMS5003;56232;53.384;-2.732;2023-04-07T05:13:07;2;2;
69123;PMS5003;56232;53.384;-2.732;2023-04-07T05:15:33;1;1;
69123;PMS5003;56232;53.384;-2.732;2023-04-07T05:17:59;2;2;
69123;PMS5003;56232;53.384;-2.732;2023-04-07T05:20:24;6;4;
69123;PMS5003;56232;53.384;-2.732;2023-04-07T05:22:50;5;4;
69123;PMS5003;56232;53.384;-2.732;2023-04-07T05:25:16;2;2;
69123;PMS5003;56232;53.384;-2.732;2023-04-07T05:27:41;5;3;
69123;PMS5003;56232;53.384;-2.732;2023-04-07T05:30:07;2;2;
69123;PMS5003;56232;53.384;-2.732;2023-04-07T05:32:32;3;3;
69123;PMS5003;56232;53.384;-2.732;2023-04-07T05:34:57;10;4;
69123;PMS5003;56232;53.384;-2.732;2023-04-07T05:37:23;4;3;
69123;PMS5003;56232;53.384;-2.732;2023-04-07T05:39:48;3;3;
69123;PMS5003;56232;53.384;-2.732;2023-04-07T05:42:14;3;3;
69123;PMS5003;56232;53.384;-2.732;2023-04-07T05:44:39;3;3;
69123;PMS5003;56232;53.384;-2.732;2023-04-07T05:47:04;4;3;
69123;PMS5003;56232;53.384;-2.732;2023-04-07T05:49:29;3;3;
69123;PMS5003;56232;53.384;-2.732;2023-04-07T05:51:55;3;3;
69123;PMS5003;56232;53.384;-2.732;2023-04-07T05:54:20;4;4;
69123;PMS5003;56232;53.384;-2.732;2023-04-07T05:56:45;4;4;
69123;PMS5003;56232;53.384;-2.732;2023-04-07T05:59:11;2;2;
69123;PMS5003;56232;53.384;-2.732;2023-04-07T06:01:36;4;3;
69123;PMS5003;56232;53.384;-2.732;2023-04-07T06:04:02;5;5;
69123;PMS5003;56232;53.384;-2.732;2023-04-07T06:06:28;6;5;
69123;PMS5003;56232;53.384;-2.732;2023-04-07T06:08:54;4;4;
69123;PMS5003;56232;53.384;-2.732;2023-04-07T06:11:24;6;5;
69123;PMS5003;56232;53.384;-2.732;2023-04-07T06:13:44;14;8;
69123;PMS5003;56232;53.384;-2.732;2023-04-07T06:16:10;12;11;
69123;PMS5003;56232;53.384;-2.732;2023-04-07T06:18:35;8;8;
69123;PMS5003;56232;53.384;-2.732;2023-04-07T06:21:01;8;7;
69123;PMS5003;56232;53.384;-2.732;2023-04-07T06:23:27;7;7;
69123;PMS5003;56232;53.384;-2.732;2023-04-07T06:25:52;7;7;
69123;PMS5003;56232;53.384;-2.732;2023-04-07T06:28:18;8;7;
69123;PMS5003;56232;53.384;-2.732;2023-04-07T06:30:43;7;6;
69123;PMS5003;56232;53.384;-2.732;2023-04-07T06:33:09;8;7;
69123;PMS5003;56232;53.384;-2.732;2023-04-07T06:35:34;7;6;
69123;PMS5003;56232;53.384;-2.732;2023-04-07T06:38:00;15;10;
69123;PMS5003;56232;53.384;-2.732;2023-04-07T06:40:26;9;8;
69123;PMS5003;56232;53.384;-2.732;2023-04-07T06:42:52;8;8;
69123;PMS5003;56232;53.384;-2.732;2023-04-07T06:45:18;9;8;
69123;PMS5003;56232;53.384;-2.732;2023-04-07T06:47:43;7;7;
69123;PMS5003;56232;53.384;-2.732;2023-04-07T06:50:09;11;8;
69123;PMS5003;56232;53.384;-2.732;2023-04-07T06:52:35;10;9;
69123;PMS5003;56232;53.384;-2.732;2023-04-07T06:55:01;10;9;
69123;PMS5003;56232;53.384;-2.732;2023-04-07T06:57:26;12;11;
69123;PMS5003;56232;53.384;-2.732;2023-04-07T06:59:53;10;9;
69123;PMS5003;56232;53.384;-2.732;2023-04-07T07:02:18;9;8;
69123;PMS5003;56232;53.384;-2.732;2023-04-07T07:04:43;7;7;
69123;PMS5003;56232;53.384;-2.732;2023-04-07T07:07:09;6;4;
69123;PMS5003;56232;53.384;-2.732;2023-04-07T07:09:35;4;4;
69123;PMS5003;56232;53.384;-2.732;2023-04-07T07:12:00;3;2;
69123;PMS5003;56232;53.384;-2.732;2023-04-07T07:14:26;2;2;
69123;PMS5003;56232;53.384;-2.732;2023-04-07T07:16:51;3;3;
69123;PMS5003;56232;53.384;-2.732;2023-04-07T07:19:17;3;2;
69123;PMS5003;56232;53.384;-2.732;2023-04-07T07:21:42;3;2;
69123;PMS5003;56232;53.384;-2.732;2023-04-07T07:24:08;3;2;
69123;PMS5003;56232;53.384;-2.732;2023-04-07T07:26:33;2;2;
69123;PMS5003;56232;53.384;-2.732;2023-04-07T07:28:59;3;2;
69123;PMS5003;56232;53.384;-2.732;2023-04-07T07:31:25;3;2;
69123;PMS5003;56232;53.384;-2.732;2023-04-07T07:33:51;3;2;
69123;PMS5003;56232;53.384;-2.732;2023-04-07T07:36:16;2;2;
69123;PMS5003;56232;53.384;-2.732;2023-04-07T07:38:42;2;1;
69123;PMS5003;56232;53.384;-2.732;2023-04-07T07:41:07;2;2;
69123;PMS5003;56232;53.384;-2.732;2023-04-07T07:43:33;2;1;
69123;PMS5003;56232;53.384;-2.732;2023-04-07T07:45:58;1;1;
69123;PMS5003;56232;53.384;-2.732;2023-04-07T07:48:24;2;1;
69123;PMS5003;56232;53.384;-2.732;2023-04-07T07:50:49;2;2;
69123;PMS5003;56232;53.384;-2.732;2023-04-07T07:53:15;0;0;
69123;PMS5003;56232;53.384;-2.732;2023-04-07T07:55:41;2;1;
69123;PMS5003;56232;53.384;-2.732;2023-04-07T07:58:06;1;1;
69123;PMS5003;56232;53.384;-2.732;2023-04-07T08:00:32;2;1;
69123;PMS5003;56232;53.384;-2.732;2023-04-07T08:02:57;1;1;
69123;PMS5003;56232;53.384;-2.732;2023-04-07T08:05:23;1;1;
69123;PMS5003;56232;53.384;-2.732;2023-04-07T08:07:48;1;1;
69123;PMS5003;56232;53.384;-2.732;2023-04-07T08:10:14;0;0;
69123;PMS5003;56232;53.384;-2.732;2023-04-07T08:12:40;1;1;
69123;PMS5003;56232;53.384;-2.732;2023-04-07T08:15:05;1;0;
69123;PMS5003;56232;53.384;-2.732;2023-04-07T08:17:31;2;2;
69123;PMS5003;56232;53.384;-2.732;2023-04-07T08:19:56;0;0;
69123;PMS5003;56232;53.384;-2.732;2023-04-07T08:22:22;1;0;
69123;PMS5003;56232;53.384;-2.732;2023-04-07T08:24:47;1;1;
69123;PMS5003;56232;53.384;-2.732;2023-04-07T08:27:13;1;1;
69123;PMS5003;56232;53.384;-2.732;2023-04-07T08:29:38;0;0;
69123;PMS5003;56232;53.384;-2.732;2023-04-07T08:32:04;2;1;
69123;PMS5003;56232;53.384;-2.732;2023-04-07T08:34:29;0;0;
69123;PMS5003;56232;53.384;-2.732;2023-04-07T08:36:55;1;1;
69123;PMS5003;56232;53.384;-2.732;2023-04-07T08:39:20;2;0;
69123;PMS5003;56232;53.384;-2.732;2023-04-07T08:41:46;1;0;
69123;PMS5003;56232;53.384;-2.732;2023-04-07T08:44:12;1;0;
69123;PMS5003;56232;53.384;-2.732;2023-04-07T08:46:37;1;1;
69123;PMS5003;56232;53.384;-2.732;2023-04-07T08:49:03;2;1;
69123;PMS5003;56232;53.384;-2.732;2023-04-07T08:51:29;1;1;
69123;PMS5003;56232;53.384;-2.732;2023-04-07T08:53:56;3;2;
69123;PMS5003;56232;53.384;-2.732;2023-04-07T08:56:19;1;1;
69123;PMS5003;56232;53.384;-2.732;2023-04-07T08:58:45;2;1;
69123;PMS5003;56232;53.384;-2.732;2023-04-07T09:01:10;1;1;
69123;PMS5003;56232;53.384;-2.732;2023-04-07T09:03:36;1;1;
69123;PMS5003;56232;53.384;-2.732;2023-04-07T09:06:01;1;1;
69123;PMS5003;56232;53.384;-2.732;2023-04-07T09:08:27;0;0;
69123;PMS5003;56232;53.384;-2.732;2023-04-07T09:10:53;1;1;
69123;PMS5003;56232;53.384;-2.732;2023-04-07T09:13:18;1;1;
69123;PMS5003;56232;53.384;-2.732;2023-04-07T09:15:43;1;0;
69123;PMS5003;56232;53.384;-2.732;2023-04-07T09:18:09;1;0;
69123;PMS5003;56232;53.384;-2.732;2023-04-07T09:23:00;0;0;
69123;PMS5003;56232;53.384;-2.732;2023-04-07T09:25:26;1;0;
69123;PMS5003;56232;53.384;-2.732;2023-04-07T09:27:55;2;1;
69123;PMS5003;56232;53.384;-2.732;2023-04-07T09:30:17;1;1;
69123;PMS5003;56232;53.384;-2.732;2023-04-07T09:32:42;1;0;
69123;PMS5003;56232;53.384;-2.732;2023-04-07T09:35:08;1;1;
69123;PMS5003;56232;53.384;-2.732;2023-04-07T09:37:33;0;0;
69123;PMS5003;56232;53.384;-2.732;2023-04-07T09:39:59;1;1;
69123;PMS5003;56232;53.384;-2.732;2023-04-07T09:42:24;1;1;
69123;PMS5003;56232;53.384;-2.732;2023-04-07T09:44:50;0;0;
69123;PMS5003;56232;53.384;-2.732;2023-04-07T09:47:15;0;0;
69123;PMS5003;56232;53.384;-2.732;2023-04-07T09:52:06;1;0;
69123;PMS5003;56232;53.384;-2.732;2023-04-07T09:54:33;0;0;
69123;PMS5003;56232;53.384;-2.732;2023-04-07T09:56:58;0;0;
69123;PMS5003;56232;53.384;-2.732;2023-04-07T09:59:23;0;0;
69123;PMS5003;56232;53.384;-2.732;2023-04-07T10:01:49;0;0;
69123;PMS5003;56232;53.384;-2.732;2023-04-07T10:04:14;0;0;
69123;PMS5003;56232;53.384;-2.732;2023-04-07T10:06:40;0;0;
69123;PMS5003;56232;53.384;-2.732;2023-04-07T10:09:05;0;0;
69123;PMS5003;56232;53.384;-2.732;2023-04-07T10:11:31;0;0;
69123;PMS5003;56232;53.384;-2.732;2023-04-07T10:13:56;1;1;
69123;PMS5003;56232;53.384;-2.732;2023-04-07T10:16:22;1;0;
69123;PMS5003;56232;53.384;-2.732;2023-04-07T10:18:47;0;0;
69123;PMS5003;56232;53.384;-2.732;2023-04-07T10:21:13;0;0;
69123;PMS5003;56232;53.384;-2.732;2023-04-07T10:23:45;0;0;
69123;PMS5003;56232;53.384;-2.732;2023-04-07T10:26:05;0;0;
69123;PMS5003;56232;53.384;-2.732;2023-04-07T10:28:30;0;0;
69123;PMS5003;56232;53.384;-2.732;2023-04-07T10:30:55;0;0;
69123;PMS5003;56232;53.384;-2.732;2023-04-07T10:38:12;0;0;
69123;PMS5003;56232;53.384;-2.732;2023-04-07T10:40:38;1;1;
69123;PMS5003;56232;53.384;-2.732;2023-04-07T10:43:04;1;0;
69123;PMS5003;56232;53.384;-2.732;2023-04-07T10:50:21;1;1;
69123;PMS5003;56232;53.384;-2.732;2023-04-07T10:52:46;0;0;
69123;PMS5003;56232;53.384;-2.732;2023-04-07T10:57:37;0;0;
69123;PMS5003;56232;53.384;-2.732;2023-04-07T11:02:32;1;1;
69123;PMS5003;56232;53.384;-2.732;2023-04-07T11:04:54;0;0;
69123;PMS5003;56232;53.384;-2.732;2023-04-07T11:07:22;1;0;
69123;PMS5003;56232;53.384;-2.732;2023-04-07T11:09:45;0;0;
69123;PMS5003;56232;53.384;-2.732;2023-04-07T11:14:36;0;0;
69123;PMS5003;56232;53.384;-2.732;2023-04-07T11:17:02;2;1;
69123;PMS5003;56232;53.384;-2.732;2023-04-07T11:19:28;1;1;
69123;PMS5003;56232;53.384;-2.732;2023-04-07T11:26:44;0;0;
69123;PMS5003;56232;53.384;-2.732;2023-04-07T11:29:10;0;0;
69123;PMS5003;56232;53.384;-2.732;2023-04-07T11:31:36;0;0;
69123;PMS5003;56232;53.384;-2.732;2023-04-07T11:34:02;0;0;
69123;PMS5003;56232;53.384;-2.732;2023-04-07T11:36:28;0;0;
69123;PMS5003;56232;53.384;-2.732;2023-04-07T11:38:53;0;0;
69123;PMS5003;56232;53.384;-2.732;2023-04-07T11:41:18;0;0;
69123;PMS5003;56232;53.384;-2.732;2023-04-07T11:43:44;1;0;
69123;PMS5003;56232;53.384;-2.732;2023-04-07T11:46:10;0;0;
69123;PMS5003;56232;53.384;-2.732;2023-04-07T11:48:35;0;0;
69123;PMS5003;56232;53.384;-2.732;2023-04-07T11:51:01;0;0;
69123;PMS5003;56232;53.384;-2.732;2023-04-07T11:53:27;0;0;
69123;PMS5003;56232;53.384;-2.732;2023-04-07T11:58:17;1;0;
69123;PMS5003;56232;53.384;-2.732;2023-04-07T12:03:09;0;0;
69123;PMS5003;56232;53.384;-2.732;2023-04-07T12:08:00;0;0;
69123;PMS5003;56232;53.384;-2.732;2023-04-07T12:10:26;1;1;
69123;PMS5003;56232;53.384;-2.732;2023-04-07T12:12:51;1;1;
69123;PMS5003;56232;53.384;-2.732;2023-04-07T12:15:17;0;0;
69123;PMS5003;56232;53.384;-2.732;2023-04-07T12:17:43;1;1;
69123;PMS5003;56232;53.384;-2.732;2023-04-07T12:20:08;0;0;
69123;PMS5003;56232;53.384;-2.732;2023-04-07T12:22:33;1;0;
69123;PMS5003;56232;53.384;-2.732;2023-04-07T12:24:59;0;0;
69123;PMS5003;56232;53.384;-2.732;2023-04-07T12:27:24;0;0;
69123;PMS5003;56232;53.384;-2.732;2023-04-07T12:29:50;3;3;
69123;PMS5003;56232;53.384;-2.732;2023-04-07T12:32:15;1;1;
69123;PMS5003;56232;53.384;-2.732;2023-04-07T12:34:41;1;0;
69123;PMS5003;56232;53.384;-2.732;2023-04-07T12:37:06;2;1;
69123;PMS5003;56232;53.384;-2.732;2023-04-07T12:39:32;1;1;
69123;PMS5003;56232;53.384;-2.732;2023-04-07T12:41:58;1;1;
69123;PMS5003;56232;53.384;-2.732;2023-04-07T12:44:23;0;0;
69123;PMS5003;56232;53.384;-2.732;2023-04-07T12:46:49;2;1;
69123;PMS5003;56232;53.384;-2.732;2023-04-07T12:49:15;0;0;
69123;PMS5003;56232;53.384;-2.732;2023-04-07T12:51:40;1;1;
69123;PMS5003;56232;53.384;-2.732;2023-04-07T12:54:06;1;1;
69123;PMS5003;56232;53.384;-2.732;2023-04-07T12:56:31;0;0;
69123;PMS5003;56232;53.384;-2.732;2023-04-07T12:58:57;1;1;
69123;PMS5003;56232;53.384;-2.732;2023-04-07T13:01:23;1;1;
69123;PMS5003;56232;53.384;-2.732;2023-04-07T13:03:48;0;0;
69123;PMS5003;56232;53.384;-2.732;2023-04-07T13:06:14;0;0;
69123;PMS5003;56232;53.384;-2.732;2023-04-07T13:08:40;1;1;
69123;PMS5003;56232;53.384;-2.732;2023-04-07T13:11:05;0;0;
69123;PMS5003;56232;53.384;-2.732;2023-04-07T13:13:31;2;2;
69123;PMS5003;56232;53.384;-2.732;2023-04-07T13:15:56;1;1;
69123;PMS5003;56232;53.384;-2.732;2023-04-07T13:18:22;1;0;
69123;PMS5003;56232;53.384;-2.732;2023-04-07T13:20:48;0;0;
69123;PMS5003;56232;53.384;-2.732;2023-04-07T13:23:13;0;0;
69123;PMS5003;56232;53.384;-2.732;2023-04-07T13:25:39;0;0;
69123;PMS5003;56232;53.384;-2.732;2023-04-07T13:28:04;0;0;
69123;PMS5003;56232;53.384;-2.732;2023-04-07T13:30:30;0;0;
69123;PMS5003;56232;53.384;-2.732;2023-04-07T13:32:56;0;0;
69123;PMS5003;56232;53.384;-2.732;2023-04-07T13:35:21;1;1;
69123;PMS5003;56232;53.384;-2.732;2023-04-07T13:37:47;0;0;
69123;PMS5003;56232;53.384;-2.732;2023-04-07T13:40:13;0;0;
69123;PMS5003;56232;53.384;-2.732;2023-04-07T13:42:38;0;0;
69123;PMS5003;56232;53.384;-2.732;2023-04-07T13:45:04;1;0;
69123;PMS5003;56232;53.384;-2.732;2023-04-07T13:47:30;3;3;
69123;PMS5003;56232;53.384;-2.732;2023-04-07T13:49:55;0;0;
69123;PMS5003;56232;53.384;-2.732;2023-04-07T13:52:21;1;1;
69123;PMS5003;56232;53.384;-2.732;2023-04-07T13:54:46;0;0;
69123;PMS5003;56232;53.384;-2.732;2023-04-07T13:57:12;3;1;
69123;PMS5003;56232;53.384;-2.732;2023-04-07T13:59:38;1;1;
69123;PMS5003;56232;53.384;-2.732;2023-04-07T14:02:03;1;1;
69123;PMS5003;56232;53.384;-2.732;2023-04-07T14:04:29;1;1;
69123;PMS5003;56232;53.384;-2.732;2023-04-07T14:06:54;0;0;
69123;PMS5003;56232;53.384;-2.732;2023-04-07T14:09:20;0;0;
69123;PMS5003;56232;53.384;-2.732;2023-04-07T14:11:46;0;0;
69123;PMS5003;56232;53.384;-2.732;2023-04-07T14:14:11;1;1;
69123;PMS5003;56232;53.384;-2.732;2023-04-07T14:16:37;1;1;
69123;PMS5003;56232;53.384;-2.732;2023-04-07T14:19:02;2;1;
69123;PMS5003;56232;53.384;-2.732;2023-04-07T14:21:28;1;1;
69123;PMS5003;56232;53.384;-2.732;2023-04-07T14:23:54;1;1;
69123;PMS5003;56232;53.384;-2.732;2023-04-07T14:26:19;0;0;
69123;PMS5003;56232;53.384;-2.732;2023-04-07T14:28:45;0;0;
69123;PMS5003;56232;53.384;-2.732;2023-04-07T14:31:11;1;1;
69123;PMS5003;56232;53.384;-2.732;2023-04-07T14:33:36;0;0;
69123;PMS5003;56232;53.384;-2.732;2023-04-07T14:36:02;0;0;
69123;PMS5003;56232;53.384;-2.732;2023-04-07T14:38:27;0;0;
69123;PMS5003;56232;53.384;-2.732;2023-04-07T14:40:53;0;0;
69123;PMS5003;56232;53.384;-2.732;2023-04-07T14:43:19;1;0;
69123;PMS5003;56232;53.384;-2.732;2023-04-07T14:45:44;0;0;
69123;PMS5003;56232;53.384;-2.732;2023-04-07T14:48:10;1;0;
69123;PMS5003;56232;53.384;-2.732;2023-04-07T14:50:35;0;0;
69123;PMS5003;56232;53.384;-2.732;2023-04-07T14:53:01;1;0;
69123;PMS5003;56232;53.384;-2.732;2023-04-07T14:55:27;0;0;
69123;PMS5003;56232;53.384;-2.732;2023-04-07T14:57:53;0;0;
69123;PMS5003;56232;53.384;-2.732;2023-04-07T15:00:18;0;0;
69123;PMS5003;56232;53.384;-2.732;2023-04-07T15:02:43;0;0;
69123;PMS5003;56232;53.384;-2.732;2023-04-07T15:05:09;0;0;
69123;PMS5003;56232;53.384;-2.732;2023-04-07T15:07:35;0;0;
69123;PMS5003;56232;53.384;-2.732;2023-04-07T15:10:00;0;0;
69123;PMS5003;56232;53.384;-2.732;2023-04-07T15:12:40;0;0;
69123;PMS5003;56232;53.384;-2.732;2023-04-07T15:14:52;0;0;
69123;PMS5003;56232;53.384;-2.732;2023-04-07T15:17:17;0;0;
69123;PMS5003;56232;53.384;-2.732;2023-04-07T15:19:43;1;1;
69123;PMS5003;56232;53.384;-2.732;2023-04-07T15:22:08;0;0;
69123;PMS5003;56232;53.384;-2.732;2023-04-07T15:24:34;1;0;
69123;PMS5003;56232;53.384;-2.732;2023-04-07T15:27:00;0;0;
69123;PMS5003;56232;53.384;-2.732;2023-04-07T15:29:25;0;0;
69123;PMS5003;56232;53.384;-2.732;2023-04-07T15:31:51;0;0;
69123;PMS5003;56232;53.384;-2.732;2023-04-07T15:34:17;0;0;
69123;PMS5003;56232;53.384;-2.732;2023-04-07T15:36:42;1;1;
69123;PMS5003;56232;53.384;-2.732;2023-04-07T15:39:08;0;0;
69123;PMS5003;56232;53.384;-2.732;2023-04-07T15:41:33;0;0;
69123;PMS5003;56232;53.384;-2.732;2023-04-07T15:43:59;0;0;
69123;PMS5003;56232;53.384;-2.732;2023-04-07T15:46:25;0;0;
69123;PMS5003;56232;53.384;-2.732;2023-04-07T15:48:50;0;0;
69123;PMS5003;56232;53.384;-2.732;2023-04-07T15:51:16;0;0;
69123;PMS5003;56232;53.384;-2.732;2023-04-07T15:53:42;0;0;
69123;PMS5003;56232;53.384;-2.732;2023-04-07T15:56:07;0;0;
69123;PMS5003;56232;53.384;-2.732;2023-04-07T15:58:33;0;0;
69123;PMS5003;56232;53.384;-2.732;2023-04-07T16:00:58;0;0;
69123;PMS5003;56232;53.384;-2.732;2023-04-07T16:03:24;0;0;
69123;PMS5003;56232;53.384;-2.732;2023-04-07T16:05:50;0;0;
69123;PMS5003;56232;53.384;-2.732;2023-04-07T16:08:15;0;0;
69123;PMS5003;56232;53.384;-2.732;2023-04-07T16:10:41;0;0;
69123;PMS5003;56232;53.384;-2.732;2023-04-07T16:13:07;0;0;
69123;PMS5003;56232;53.384;-2.732;2023-04-07T16:15:32;0;0;
69123;PMS5003;56232;53.384;-2.732;2023-04-07T16:17:58;0;0;
69123;PMS5003;56232;53.384;-2.732;2023-04-07T16:20:23;0;0;
69123;PMS5003;56232;53.384;-2.732;2023-04-07T16:22:49;0;0;
69123;PMS5003;56232;53.384;-2.732;2023-04-07T16:25:15;0;0;
69123;PMS5003;56232;53.384;-2.732;2023-04-07T16:27:40;0;0;
69123;PMS5003;56232;53.384;-2.732;2023-04-07T16:30:06;1;1;
69123;PMS5003;56232;53.384;-2.732;2023-04-07T16:32:31;1;1;
69123;PMS5003;56232;53.384;-2.732;2023-04-07T16:34:57;0;0;
69123;PMS5003;56232;53.384;-2.732;2023-04-07T16:37:23;0;0;
69123;PMS5003;56232;53.384;-2.732;2023-04-07T16:39:48;0;0;
69123;PMS5003;56232;53.384;-2.732;2023-04-07T16:42:14;0;0;
69123;PMS5003;56232;53.384;-2.732;2023-04-07T16:44:39;0;0;
69123;PMS5003;56232;53.384;-2.732;2023-04-07T16:47:05;0;0;
69123;PMS5003;56232;53.384;-2.732;2023-04-07T16:49:31;0;0;
69123;PMS5003;56232;53.384;-2.732;2023-04-07T16:51:56;0;0;
69123;PMS5003;56232;53.384;-2.732;2023-04-07T16:54:22;0;0;
69123;PMS5003;56232;53.384;-2.732;2023-04-07T16:56:48;0;0;